createdAt,value
2018-11-02T00:00:01.075Z,99.99
2018-11-02T00:01:01.021Z,99.99
2018-11-02T00:02:01.018Z,99.99
2018-11-02T00:03:01.042Z,99.99
2018-11-02T00:04:01.010Z,99.99
2018-11-02T00:05:01.007Z,99.99
2018-11-02T00:06:01.020Z,99.99
2018-11-02T00:07:01.006Z,99.99
2018-11-02T00:08:01.022Z,99.99
2018-11-02T00:09:00.989Z,99.99
2018-11-02T00:10:00.986Z,99.99
2018-11-02T00:11:00.990Z,99.99
2018-11-02T00:12:00.983Z,99.99
2018-11-02T00:13:01.001Z,99.99
2018-11-02T00:14:00.969Z,99.99
2018-11-02T00:15:00.971Z,99.99
2018-11-02T00:16:00.968Z,99.99
2018-11-02T00:17:00.961Z,99.99
2018-11-02T00:18:00.988Z,99.99
2018-11-02T00:19:00.951Z,99.99
2018-11-02T00:20:00.949Z,99.99
2018-11-02T00:21:00.946Z,99.99
2018-11-02T00:22:00.943Z,99.99
2018-11-02T00:23:00.963Z,99.99
2018-11-02T00:24:00.936Z,99.99
2018-11-02T00:25:00.923Z,99.99
2018-11-02T00:26:00.924Z,99.99
2018-11-02T00:27:00.921Z,99.99
2018-11-02T00:28:00.941Z,99.99
2018-11-02T00:29:00.913Z,99.99
2018-11-02T00:30:00.908Z,99.99
2018-11-02T00:31:00.900Z,99.99
2018-11-02T00:32:00.988Z,99.99
2018-11-02T00:33:00.919Z,99.99
2018-11-02T00:34:00.893Z,99.99
2018-11-02T00:35:00.887Z,99.99
2018-11-02T00:36:00.884Z,99.99
2018-11-02T00:37:00.882Z,99.99
2018-11-02T00:38:00.903Z,99.99
2018-11-02T00:39:00.875Z,99.99
2018-11-02T00:40:00.867Z,99.99
2018-11-02T00:41:00.885Z,99.99
2018-11-02T00:42:00.870Z,99.99
2018-11-02T00:43:00.881Z,99.99
2018-11-02T00:44:00.878Z,99.99
2018-11-02T00:45:00.841Z,99.99
2018-11-02T00:46:00.860Z,99.99
2018-11-02T00:47:00.837Z,99.99
2018-11-02T00:48:00.860Z,99.54
2018-11-02T00:49:00.855Z,99.99
2018-11-02T00:50:00.820Z,99.99
2018-11-02T00:51:00.842Z,99.99
2018-11-02T00:52:00.816Z,99.99
2018-11-02T00:53:00.841Z,99.99
2018-11-02T00:54:00.808Z,99.99
2018-11-02T00:55:00.819Z,99.99
2018-11-02T00:56:00.801Z,99.99
2018-11-02T00:57:00.795Z,99.99
2018-11-02T00:58:00.817Z,99.99
2018-11-02T00:59:00.784Z,99.99
2018-11-02T01:00:00.776Z,99.99
2018-11-02T01:01:00.776Z,99.99
2018-11-02T01:02:00.770Z,99.99
2018-11-02T01:03:00.796Z,99.99
2018-11-02T01:04:00.763Z,99.99
2018-11-02T01:05:00.762Z,98.54
2018-11-02T01:06:00.748Z,96.08
2018-11-02T01:07:00.747Z,95.03
2018-11-02T01:08:00.771Z,93.13
2018-11-02T01:09:00.767Z,90.95
2018-11-02T01:10:00.732Z,93.23
2018-11-02T01:11:00.725Z,95.60
2018-11-02T01:12:00.759Z,98.79
2018-11-02T01:13:00.748Z,97.41
2018-11-02T01:14:00.718Z,97.17
2018-11-02T01:15:00.711Z,98.69
2018-11-02T01:16:00.704Z,98.88
2018-11-02T01:17:00.696Z,99.35
2018-11-02T01:18:00.724Z,99.99
2018-11-02T01:19:00.694Z,99.99
2018-11-02T01:20:00.689Z,99.99
2018-11-02T01:21:00.684Z,99.99
2018-11-02T01:22:00.679Z,99.99
2018-11-02T01:23:00.701Z,99.99
2018-11-02T01:24:00.667Z,99.99
2018-11-02T01:25:00.664Z,99.99
2018-11-02T01:26:00.690Z,99.99
2018-11-02T01:27:00.657Z,99.99
2018-11-02T01:28:00.677Z,99.99
2018-11-02T01:29:00.648Z,99.99
2018-11-02T01:30:00.641Z,99.99
2018-11-02T01:31:00.636Z,99.99
2018-11-02T01:32:00.629Z,99.99
2018-11-02T01:33:00.664Z,99.99
2018-11-02T01:34:00.624Z,99.99
2018-11-02T01:35:00.620Z,99.99
2018-11-02T01:36:00.616Z,99.99
2018-11-02T01:37:00.616Z,99.99
2018-11-02T01:38:00.639Z,99.99
2018-11-02T01:39:00.601Z,99.99
2018-11-02T01:40:00.601Z,99.99
2018-11-02T01:41:00.601Z,99.99
2018-11-02T01:42:00.692Z,99.99
2018-11-02T01:43:00.622Z,99.99
2018-11-02T01:44:00.586Z,99.99
2018-11-02T01:45:00.581Z,99.99
2018-11-02T01:46:00.574Z,99.99
2018-11-02T01:47:00.575Z,99.99
2018-11-02T01:48:00.602Z,99.99
2018-11-02T01:49:00.566Z,99.99
2018-11-02T01:50:00.563Z,99.99
2018-11-02T01:51:00.558Z,99.99
2018-11-02T01:52:00.552Z,99.99
2018-11-02T01:53:00.578Z,99.99
2018-11-02T01:54:00.549Z,99.99
2018-11-02T01:55:00.549Z,99.99
2018-11-02T01:56:00.541Z,99.99
2018-11-02T01:57:00.534Z,99.99
2018-11-02T01:58:00.565Z,99.99
2018-11-02T01:59:00.529Z,99.99
2018-11-02T02:00:00.525Z,99.99
2018-11-02T02:01:00.517Z,99.99
2018-11-02T02:02:00.526Z,99.99
2018-11-02T02:03:00.546Z,99.99
2018-11-02T02:04:00.505Z,99.99
2018-11-02T02:05:00.505Z,99.99
2018-11-02T02:06:00.501Z,99.99
2018-11-02T02:07:00.525Z,99.99
2018-11-02T02:08:00.497Z,99.99
2018-11-02T02:09:00.494Z,99.99
2018-11-02T02:10:00.485Z,99.99
2018-11-02T02:11:00.489Z,99.99
2018-11-02T02:12:00.505Z,99.99
2018-11-02T02:13:00.508Z,99.99
2018-11-02T02:14:00.472Z,99.99
2018-11-02T02:15:00.473Z,99.99
2018-11-02T02:16:00.465Z,99.99
2018-11-02T02:17:00.495Z,99.99
2018-11-02T02:18:00.457Z,99.99
2018-11-02T02:19:00.468Z,99.99
2018-11-02T02:20:00.453Z,99.99
2018-11-02T02:21:00.450Z,99.99
2018-11-02T02:22:00.517Z,99.99
2018-11-02T02:23:00.443Z,99.99
2018-11-02T02:24:00.438Z,99.99
2018-11-02T02:25:00.435Z,99.99
2018-11-02T02:26:00.431Z,99.99
2018-11-02T02:27:00.459Z,99.99
2018-11-02T02:28:00.422Z,99.99
2018-11-02T02:29:00.418Z,99.99
2018-11-02T02:30:00.420Z,99.99
2018-11-02T02:31:00.413Z,99.99
2018-11-02T02:32:00.438Z,99.99
2018-11-02T02:33:00.405Z,99.99
2018-11-02T02:34:00.402Z,99.99
2018-11-02T02:35:00.393Z,99.99
2018-11-02T02:36:00.393Z,99.99
2018-11-02T02:37:00.420Z,99.99
2018-11-02T02:38:00.386Z,99.99
2018-11-02T02:39:00.388Z,99.99
2018-11-02T02:40:00.382Z,99.99
2018-11-02T02:41:00.377Z,99.99
2018-11-02T02:42:00.404Z,99.99
2018-11-02T02:43:00.367Z,99.99
2018-11-02T02:44:00.369Z,99.99
2018-11-02T02:45:00.362Z,99.99
2018-11-02T02:46:00.357Z,99.99
2018-11-02T02:47:00.384Z,99.99
2018-11-02T02:48:00.354Z,99.99
2018-11-02T02:49:00.353Z,99.99
2018-11-02T02:50:00.347Z,99.99
2018-11-02T02:51:00.338Z,99.99
2018-11-02T02:52:00.374Z,99.99
2018-11-02T02:53:00.329Z,99.99
2018-11-02T02:54:00.333Z,99.99
2018-11-02T02:55:00.325Z,99.99
2018-11-02T02:56:00.322Z,99.99
2018-11-02T02:57:00.349Z,99.99
2018-11-02T02:58:00.313Z,99.99
2018-11-02T02:59:00.346Z,99.99
2018-11-02T03:00:00.319Z,99.99
2018-11-02T03:01:00.310Z,99.99
2018-11-02T03:02:00.358Z,99.99
2018-11-02T03:03:00.298Z,99.99
2018-11-02T03:04:00.293Z,99.99
2018-11-02T03:05:00.290Z,99.99
2018-11-02T03:06:00.281Z,99.99
2018-11-02T03:07:00.310Z,99.99
2018-11-02T03:08:00.285Z,99.99
2018-11-02T03:09:00.308Z,99.99
2018-11-02T03:10:00.269Z,99.99
2018-11-02T03:11:00.540Z,99.99
2018-11-02T03:12:00.268Z,99.99
2018-11-02T03:13:00.283Z,99.99
2018-11-02T03:14:00.253Z,99.99
2018-11-02T03:15:00.279Z,99.99
2018-11-02T03:16:00.250Z,99.99
2018-11-02T03:17:00.272Z,99.99
2018-11-02T03:18:00.242Z,99.99
2018-11-02T03:19:00.238Z,99.99
2018-11-02T03:20:00.230Z,99.99
2018-11-02T03:21:00.250Z,99.99
2018-11-02T03:22:00.227Z,99.99
2018-11-02T03:23:00.226Z,99.99
2018-11-02T03:24:00.217Z,99.99
2018-11-02T03:25:00.217Z,99.99
2018-11-02T03:26:00.240Z,99.99
2018-11-02T03:27:00.214Z,99.99
2018-11-02T03:28:00.202Z,99.99
2018-11-02T03:29:00.198Z,99.99
2018-11-02T03:30:00.240Z,99.99
2018-11-02T03:31:00.187Z,99.99
2018-11-02T03:32:00.217Z,99.99
2018-11-02T03:33:00.183Z,99.99
2018-11-02T03:34:00.176Z,99.99
2018-11-02T03:35:00.175Z,99.99
2018-11-02T03:36:00.171Z,99.99
2018-11-02T03:37:00.196Z,99.99
2018-11-02T03:38:00.162Z,99.99
2018-11-02T03:39:00.158Z,99.99
2018-11-02T03:40:00.153Z,99.99
2018-11-02T03:41:00.174Z,99.99
2018-11-02T03:42:00.145Z,99.99
2018-11-02T03:43:00.142Z,99.99
2018-11-02T03:44:00.145Z,99.99
2018-11-02T03:45:00.135Z,99.99
2018-11-02T03:46:00.168Z,99.99
2018-11-02T03:47:00.130Z,99.99
2018-11-02T03:48:00.123Z,99.99
2018-11-02T03:49:00.125Z,99.99
2018-11-02T03:50:00.151Z,99.99
2018-11-02T03:51:00.113Z,99.99
2018-11-02T03:52:00.116Z,99.99
2018-11-02T03:53:00.107Z,99.99
2018-11-02T03:54:00.102Z,99.99
2018-11-02T03:55:00.128Z,99.99
2018-11-02T03:56:00.095Z,99.99
2018-11-02T03:57:00.107Z,99.99
2018-11-02T03:58:00.087Z,99.99
2018-11-02T03:59:00.080Z,99.99
2018-11-02T04:00:00.109Z,99.99
2018-11-02T04:01:00.079Z,99.99
2018-11-02T04:02:00.112Z,99.99
2018-11-02T04:03:00.068Z,99.99
2018-11-02T04:04:00.062Z,99.99
2018-11-02T04:05:00.086Z,99.99
2018-11-02T04:06:00.057Z,99.99
2018-11-02T04:07:00.051Z,99.99
2018-11-02T04:08:00.041Z,99.99
2018-11-02T04:09:00.043Z,99.99
2018-11-02T04:10:00.067Z,99.99
2018-11-02T04:11:00.039Z,99.99
2018-11-02T04:12:00.035Z,99.99
2018-11-02T04:13:00.026Z,99.99
2018-11-02T04:14:00.024Z,99.99
2018-11-02T04:15:00.046Z,99.99
2018-11-02T04:16:00.019Z,99.99
2018-11-02T04:17:00.010Z,99.99
2018-11-02T04:18:00.007Z,99.99
2018-11-02T04:19:00.032Z,99.99
2018-11-02T04:20:00.026Z,99.99
2018-11-02T04:20:59.995Z,99.99
2018-11-02T04:21:59.991Z,99.99
2018-11-02T04:22:59.992Z,99.99
2018-11-02T04:23:59.985Z,99.99
2018-11-02T04:25:00.004Z,99.99
2018-11-02T04:25:59.976Z,99.99
2018-11-02T04:26:59.973Z,99.99
2018-11-02T04:27:59.963Z,99.99
2018-11-02T04:28:59.966Z,99.99
2018-11-02T04:29:59.987Z,99.99
2018-11-02T04:31:00.009Z,99.99
2018-11-02T04:31:59.954Z,99.99
2018-11-02T04:32:59.947Z,99.99
2018-11-02T04:33:59.948Z,99.99
2018-11-02T04:34:59.970Z,99.99
2018-11-02T04:35:59.934Z,99.99
2018-11-02T04:36:59.926Z,99.99
2018-11-02T04:37:59.923Z,99.99
2018-11-02T04:38:59.919Z,99.99
2018-11-02T04:39:59.946Z,99.99
2018-11-02T04:40:59.918Z,99.99
2018-11-02T04:41:59.911Z,99.99
2018-11-02T04:42:59.903Z,99.99
2018-11-02T04:43:59.899Z,99.99
2018-11-02T04:44:59.921Z,99.99
2018-11-02T04:45:59.894Z,99.99
2018-11-02T04:46:59.886Z,99.99
2018-11-02T04:47:59.884Z,99.99
2018-11-02T04:48:59.880Z,99.99
2018-11-02T04:49:59.879Z,99.99
2018-11-02T04:50:59.958Z,99.99
2018-11-02T04:51:59.918Z,99.99
2018-11-02T04:52:59.865Z,99.99
2018-11-02T04:53:59.859Z,99.99
2018-11-02T04:54:59.856Z,99.99
2018-11-02T04:55:59.875Z,99.99
2018-11-02T04:56:59.847Z,99.99
2018-11-02T04:57:59.847Z,99.99
2018-11-02T04:58:59.839Z,99.99
2018-11-02T04:59:59.871Z,99.99
2018-11-02T05:00:59.833Z,99.99
2018-11-02T05:01:59.852Z,99.99
2018-11-02T05:02:59.825Z,99.99
2018-11-02T05:03:59.816Z,99.99
2018-11-02T05:04:59.827Z,99.99
2018-11-02T05:05:59.841Z,99.99
2018-11-02T05:06:59.803Z,99.99
2018-11-02T05:07:59.801Z,99.99
2018-11-02T05:08:59.800Z,99.99
2018-11-02T05:09:59.963Z,99.99
2018-11-02T05:10:59.815Z,99.99
2018-11-02T05:11:59.784Z,99.99
2018-11-02T05:12:59.780Z,99.99
2018-11-02T05:13:59.775Z,99.99
2018-11-02T05:14:59.800Z,99.99
2018-11-02T05:15:59.767Z,99.99
2018-11-02T05:16:59.763Z,99.99
2018-11-02T05:17:59.760Z,99.99
2018-11-02T05:18:59.753Z,99.99
2018-11-02T05:19:59.781Z,99.99
2018-11-02T05:20:59.761Z,99.99
2018-11-02T05:21:59.745Z,99.99
2018-11-02T05:22:59.740Z,99.99
2018-11-02T05:23:59.737Z,99.99
2018-11-02T05:24:59.756Z,99.99
2018-11-02T05:25:59.722Z,99.99
2018-11-02T05:26:59.718Z,99.99
2018-11-02T05:27:59.716Z,99.99
2018-11-02T05:28:59.748Z,99.99
2018-11-02T05:29:59.736Z,99.99
2018-11-02T05:30:59.711Z,99.99
2018-11-02T05:31:59.699Z,99.99
2018-11-02T05:32:59.697Z,99.99
2018-11-02T05:33:59.691Z,99.99
2018-11-02T05:34:59.724Z,99.99
2018-11-02T05:35:59.681Z,99.99
2018-11-02T05:36:59.679Z,99.99
2018-11-02T05:37:59.676Z,99.99
2018-11-02T05:38:59.676Z,99.99
2018-11-02T05:39:59.696Z,99.99
2018-11-02T05:40:59.663Z,99.99
2018-11-02T05:41:59.697Z,99.99
2018-11-02T05:42:59.657Z,99.99
2018-11-02T05:43:59.647Z,99.99
2018-11-02T05:44:59.672Z,99.99
2018-11-02T05:45:59.641Z,99.99
2018-11-02T05:46:59.667Z,99.99
2018-11-02T05:47:59.645Z,99.99
2018-11-02T05:48:59.630Z,99.99
2018-11-02T05:49:59.652Z,99.99
2018-11-02T05:50:59.622Z,99.99
2018-11-02T05:51:59.616Z,99.99
2018-11-02T05:52:59.613Z,99.99
2018-11-02T05:53:59.648Z,99.99
2018-11-02T05:54:59.627Z,99.99
2018-11-02T05:55:59.602Z,99.99
2018-11-02T05:56:59.596Z,99.99
2018-11-02T05:57:59.592Z,99.99
2018-11-02T05:58:59.583Z,99.99
2018-11-02T05:59:59.612Z,99.99
2018-11-02T06:00:59.583Z,99.99
2018-11-02T06:01:59.576Z,99.99
2018-11-02T06:02:59.571Z,99.99
2018-11-02T06:03:59.588Z,99.99
2018-11-02T06:04:59.593Z,99.99
2018-11-02T06:05:59.560Z,99.99
2018-11-02T06:06:59.555Z,99.99
2018-11-02T06:07:59.577Z,99.99
2018-11-02T06:08:59.604Z,99.99
2018-11-02T06:09:59.569Z,99.99
2018-11-02T06:10:59.536Z,99.99
2018-11-02T06:11:59.528Z,99.99
2018-11-02T06:12:59.532Z,99.99
2018-11-02T06:13:59.524Z,99.99
2018-11-02T06:14:59.547Z,99.99
2018-11-02T06:15:59.525Z,99.99
2018-11-02T06:16:59.657Z,99.99
2018-11-02T06:17:59.517Z,99.99
2018-11-02T06:18:59.508Z,99.99
2018-11-02T06:19:59.535Z,99.99
2018-11-02T06:20:59.495Z,99.99
2018-11-02T06:21:59.499Z,99.99
2018-11-02T06:22:59.491Z,99.99
2018-11-02T06:23:59.502Z,99.99
2018-11-02T06:24:59.508Z,99.99
2018-11-02T06:25:59.476Z,99.99
2018-11-02T06:26:59.473Z,99.99
2018-11-02T06:27:59.477Z,99.99
2018-11-02T06:29:01.609Z,99.99
2018-11-02T06:29:59.488Z,99.99
2018-11-02T06:30:59.456Z,99.99
2018-11-02T06:31:59.447Z,99.99
2018-11-02T06:32:59.552Z,99.99
2018-11-02T06:33:59.462Z,99.99
2018-11-02T06:34:59.445Z,99.99
2018-11-02T06:35:59.436Z,99.99
2018-11-02T06:36:59.437Z,99.99
2018-11-02T06:37:59.428Z,99.99
2018-11-02T06:38:59.627Z,99.99
2018-11-02T06:39:59.416Z,99.99
2018-11-02T06:40:59.413Z,99.99
2018-11-02T06:41:59.436Z,99.99
2018-11-02T06:42:59.404Z,99.99
2018-11-02T06:43:59.402Z,99.99
2018-11-02T06:44:59.517Z,99.99
2018-11-02T06:45:59.388Z,99.99
2018-11-02T06:46:59.392Z,99.99
2018-11-02T06:47:59.380Z,99.99
2018-11-02T06:48:59.380Z,99.99
2018-11-02T06:49:59.404Z,99.99
2018-11-02T06:50:59.398Z,99.99
2018-11-02T06:51:59.370Z,99.99
2018-11-02T06:52:59.364Z,99.99
2018-11-02T06:53:59.391Z,99.99
2018-11-02T06:54:59.362Z,99.99
2018-11-02T06:55:59.356Z,99.99
2018-11-02T06:56:59.355Z,99.99
2018-11-02T06:57:59.348Z,99.99
2018-11-02T06:58:59.432Z,99.99
2018-11-02T06:59:59.564Z,99.99
2018-11-02T07:00:59.336Z,99.99
2018-11-02T07:01:59.340Z,99.99
2018-11-02T07:02:59.328Z,99.99
2018-11-02T07:03:59.355Z,99.99
2018-11-02T07:04:59.323Z,99.99
2018-11-02T07:05:59.313Z,99.99
2018-11-02T07:06:59.377Z,99.99
2018-11-02T07:07:59.386Z,99.99
2018-11-02T07:08:59.339Z,99.99
2018-11-02T07:09:59.298Z,99.99
2018-11-02T07:10:59.299Z,99.99
2018-11-02T07:11:59.304Z,99.99
2018-11-02T07:12:59.294Z,99.99
2018-11-02T07:13:59.314Z,99.99
2018-11-02T07:14:59.282Z,99.99
2018-11-02T07:15:59.281Z,99.99
2018-11-02T07:16:59.277Z,99.99
2018-11-02T07:17:59.275Z,99.99
2018-11-02T07:18:59.300Z,99.99
2018-11-02T07:19:59.270Z,99.99
2018-11-02T07:20:59.264Z,99.99
2018-11-02T07:21:59.269Z,99.99
2018-11-02T07:22:59.272Z,99.99
2018-11-02T07:23:59.295Z,99.99
2018-11-02T07:24:59.283Z,99.99
2018-11-02T07:25:59.252Z,99.99
2018-11-02T07:26:59.245Z,99.99
2018-11-02T07:27:59.250Z,99.99
2018-11-02T07:28:59.272Z,99.99
2018-11-02T07:29:59.245Z,99.99
2018-11-02T07:30:59.245Z,99.99
2018-11-02T07:31:59.244Z,99.99
2018-11-02T07:32:59.233Z,99.99
2018-11-02T07:33:59.258Z,99.99
2018-11-02T07:34:59.240Z,99.99
2018-11-02T07:35:59.225Z,99.99
2018-11-02T07:36:59.229Z,99.99
2018-11-02T07:37:59.256Z,99.99
2018-11-02T07:38:59.224Z,99.99
2018-11-02T07:39:59.227Z,99.99
2018-11-02T07:40:59.225Z,99.99
2018-11-02T07:41:59.221Z,99.99
2018-11-02T07:42:59.254Z,99.99
2018-11-02T07:43:59.227Z,99.99
2018-11-02T07:44:59.212Z,99.99
2018-11-02T07:45:59.216Z,99.99
2018-11-02T07:46:59.218Z,99.99
2018-11-02T07:47:59.254Z,99.99
2018-11-02T07:48:59.214Z,99.99
2018-11-02T07:49:59.211Z,99.99
2018-11-02T07:50:59.214Z,99.99
2018-11-02T07:51:59.211Z,99.99
2018-11-02T07:52:59.284Z,99.99
2018-11-02T07:53:59.209Z,99.99
2018-11-02T07:54:59.216Z,99.99
2018-11-02T07:55:59.209Z,99.99
2018-11-02T07:56:59.208Z,99.99
2018-11-02T07:57:59.233Z,99.99
2018-11-02T07:58:59.213Z,99.99
2018-11-02T07:59:59.213Z,99.99
2018-11-02T08:00:59.208Z,99.99
2018-11-02T08:01:59.210Z,99.99
2018-11-02T08:02:59.233Z,99.99
2018-11-02T08:03:59.652Z,99.99
2018-11-02T08:04:59.209Z,99.99
2018-11-02T08:05:59.206Z,99.99
2018-11-02T08:06:59.207Z,99.99
2018-11-02T08:07:59.229Z,99.99
2018-11-02T08:08:59.209Z,99.99
2018-11-02T08:09:59.210Z,99.99
2018-11-02T08:10:59.213Z,99.99
2018-11-02T08:11:59.212Z,99.99
2018-11-02T08:12:59.251Z,99.99
2018-11-02T08:13:59.209Z,99.99
2018-11-02T08:14:59.213Z,99.99
2018-11-02T08:15:59.205Z,99.99
2018-11-02T08:16:59.209Z,99.99
2018-11-02T08:17:59.237Z,99.99
2018-11-02T08:18:59.225Z,99.99
2018-11-02T08:19:59.207Z,99.99
2018-11-02T08:20:59.208Z,99.99
2018-11-02T08:21:59.213Z,99.99
2018-11-02T08:22:59.245Z,99.99
2018-11-02T08:23:59.215Z,99.99
2018-11-02T08:24:59.214Z,99.99
2018-11-02T08:25:59.210Z,99.99
2018-11-02T08:26:59.214Z,99.99
2018-11-02T08:27:59.241Z,99.99
2018-11-02T08:28:59.236Z,99.99
2018-11-02T08:29:59.210Z,99.99
2018-11-02T08:30:59.209Z,99.99
2018-11-02T08:31:59.236Z,99.99
2018-11-02T08:32:59.237Z,99.99
2018-11-02T08:33:59.209Z,99.99
2018-11-02T08:34:59.210Z,99.99
2018-11-02T08:35:59.205Z,99.99
2018-11-02T08:36:59.205Z,99.99
2018-11-02T08:37:59.233Z,99.99
2018-11-02T08:38:59.206Z,99.99
2018-11-02T08:39:59.198Z,99.99
2018-11-02T08:40:59.202Z,99.99
2018-11-02T08:41:59.268Z,99.99
2018-11-02T08:42:59.228Z,99.99
2018-11-02T08:43:59.199Z,99.99
2018-11-02T08:44:59.201Z,99.99
2018-11-02T08:45:59.199Z,99.99
2018-11-02T08:46:59.193Z,99.99
2018-11-02T08:47:59.221Z,99.99
2018-11-02T08:48:59.196Z,99.99
2018-11-02T08:49:59.193Z,99.99
2018-11-02T08:50:59.193Z,99.99
2018-11-02T08:51:59.195Z,99.99
2018-11-02T08:52:59.222Z,99.99
2018-11-02T08:53:59.190Z,99.99
2018-11-02T08:54:59.190Z,99.99
2018-11-02T08:55:59.189Z,99.99
2018-11-02T08:56:59.190Z,99.99
2018-11-02T08:57:59.300Z,99.99
2018-11-02T08:58:59.221Z,99.99
2018-11-02T08:59:59.198Z,99.99
2018-11-02T09:00:59.324Z,99.99
2018-11-02T09:02:00.183Z,99.99
2018-11-02T09:03:01.120Z,99.99
2018-11-02T09:03:59.187Z,99.99
2018-11-02T09:04:59.257Z,99.99
2018-11-02T09:05:59.194Z,99.99
2018-11-02T09:06:59.190Z,99.99
2018-11-02T09:07:59.215Z,99.99
2018-11-02T09:08:59.187Z,99.99
2018-11-02T09:09:59.188Z,99.99
2018-11-02T09:10:59.193Z,99.99
2018-11-02T09:11:59.199Z,99.99
2018-11-02T09:12:59.215Z,99.99
2018-11-02T09:13:59.187Z,99.99
2018-11-02T09:14:59.195Z,99.99
2018-11-02T09:15:59.190Z,99.99
2018-11-02T09:16:59.191Z,99.99
2018-11-02T09:17:59.218Z,99.99
2018-11-02T09:18:59.274Z,99.99
2018-11-02T09:19:59.195Z,99.99
2018-11-02T09:20:59.190Z,99.99
2018-11-02T09:21:59.195Z,99.99
2018-11-02T09:22:59.227Z,99.99
2018-11-02T09:23:59.190Z,99.99
2018-11-02T09:24:59.197Z,99.99
2018-11-02T09:25:59.191Z,99.99
2018-11-02T09:26:59.256Z,99.99
2018-11-02T09:27:59.419Z,99.99
2018-11-02T09:28:59.308Z,99.99
2018-11-02T09:29:59.187Z,99.99
2018-11-02T09:30:59.196Z,99.99
2018-11-02T09:31:59.197Z,99.99
2018-11-02T09:32:59.224Z,99.99
2018-11-02T09:33:59.195Z,99.99
2018-11-02T09:34:59.191Z,99.99
2018-11-02T09:35:59.195Z,99.99
2018-11-02T09:36:59.195Z,99.99
2018-11-02T09:37:59.223Z,99.99
2018-11-02T09:38:59.203Z,99.99
2018-11-02T09:39:59.196Z,99.99
2018-11-02T09:40:59.196Z,99.99
2018-11-02T09:41:59.194Z,99.99
2018-11-02T09:42:59.220Z,99.99
2018-11-02T09:43:59.203Z,99.99
2018-11-02T09:44:59.205Z,99.99
2018-11-02T09:45:59.198Z,99.99
2018-11-02T09:46:59.210Z,99.99
2018-11-02T09:47:59.234Z,99.99
2018-11-02T09:48:59.204Z,99.99
2018-11-02T09:49:59.199Z,99.99
2018-11-02T09:50:59.201Z,99.99
2018-11-02T09:51:59.307Z,99.99
2018-11-02T09:52:59.203Z,99.99
2018-11-02T09:53:59.198Z,99.99
2018-11-02T09:54:59.200Z,99.99
2018-11-02T09:55:59.199Z,99.99
2018-11-02T09:56:59.228Z,99.99
2018-11-02T09:57:59.199Z,99.99
2018-11-02T09:58:59.219Z,99.99
2018-11-02T09:59:59.274Z,99.99
2018-11-02T10:00:59.316Z,99.99
2018-11-02T10:01:59.267Z,99.99
2018-11-02T10:02:59.224Z,99.99
2018-11-02T10:03:59.192Z,99.99
2018-11-02T10:04:59.190Z,99.99
2018-11-02T10:05:59.196Z,99.99
2018-11-02T10:06:59.230Z,99.99
2018-11-02T10:07:59.897Z,99.99
2018-11-02T10:08:59.248Z,99.99
2018-11-02T10:09:59.216Z,99.99
2018-11-02T10:10:59.192Z,99.99
2018-11-02T10:11:59.220Z,99.99
2018-11-02T10:12:59.192Z,99.99
2018-11-02T10:13:59.188Z,99.99
2018-11-02T10:14:59.221Z,99.99
2018-11-02T10:15:59.198Z,99.99
2018-11-02T10:16:59.184Z,99.99
2018-11-02T10:17:59.224Z,99.99
2018-11-02T10:18:59.189Z,99.99
2018-11-02T10:19:59.184Z,99.99
2018-11-02T10:20:59.185Z,99.99
2018-11-02T10:21:59.183Z,99.99
2018-11-02T10:22:59.313Z,99.99
2018-11-02T10:23:59.275Z,99.99
2018-11-02T10:24:59.807Z,99.99
2018-11-02T10:25:59.173Z,99.99
2018-11-02T10:26:59.181Z,99.99
2018-11-02T10:27:59.410Z,99.99
2018-11-02T10:28:59.188Z,99.99
2018-11-02T10:29:59.187Z,99.99
2018-11-02T10:30:59.180Z,99.99
2018-11-02T10:31:59.212Z,99.99
2018-11-02T10:32:59.188Z,99.99
2018-11-02T10:34:00.127Z,99.99
2018-11-02T10:34:59.181Z,99.99
2018-11-02T10:35:59.225Z,99.99
2018-11-02T10:36:59.213Z,99.99
2018-11-02T10:37:59.187Z,99.99
2018-11-02T10:38:59.194Z,99.99
2018-11-02T10:40:04.375Z,99.99
2018-11-02T10:41:03.128Z,99.99
2018-11-02T10:42:00.801Z,99.99
2018-11-02T10:42:59.185Z,99.99
2018-11-02T10:43:59.183Z,99.99
2018-11-02T10:44:59.216Z,99.99
2018-11-02T10:45:59.190Z,99.99
2018-11-02T10:46:59.220Z,99.99
2018-11-02T10:47:59.183Z,99.99
2018-11-02T10:48:59.185Z,99.99
2018-11-02T10:49:59.186Z,99.99
2018-11-02T10:50:59.189Z,99.99
2018-11-02T10:51:59.211Z,99.99
2018-11-02T10:52:59.182Z,99.99
2018-11-02T10:53:59.185Z,99.99
2018-11-02T10:54:59.192Z,99.99
2018-11-02T10:56:01.797Z,97.75
2018-11-02T10:57:01.807Z,98.43
2018-11-02T10:58:02.145Z,98.43
2018-11-02T10:58:59.206Z,98.75
2018-11-02T10:59:59.199Z,99.48
2018-11-02T11:00:59.316Z,98.24
2018-11-02T11:01:59.208Z,98.52
2018-11-02T11:02:59.241Z,99.24
2018-11-02T11:03:59.216Z,96.70
2018-11-02T11:04:59.217Z,97.28
2018-11-02T11:05:59.222Z,96.08
2018-11-02T11:06:59.249Z,95.17
2018-11-02T11:07:59.229Z,94.31
2018-11-02T11:08:59.233Z,95.03
2018-11-02T11:09:59.238Z,93.98
2018-11-02T11:10:59.244Z,91.77
2018-11-02T11:11:59.372Z,91.10
2018-11-02T11:12:59.537Z,90.19
2018-11-02T11:13:59.260Z,89.51
2018-11-02T11:14:59.268Z,90.76
2018-11-02T11:15:59.301Z,89.80
2018-11-02T11:16:59.282Z,89.27
2018-11-02T11:17:59.315Z,88.26
2018-11-02T11:18:59.295Z,86.54
2018-11-02T11:19:59.304Z,84.22
2018-11-02T11:20:59.336Z,82.78
2018-11-02T11:21:59.351Z,80.66
2018-11-02T11:22:59.334Z,81.05
2018-11-02T11:23:59.344Z,81.87
2018-11-02T11:24:59.350Z,82.74
2018-11-02T11:25:59.366Z,82.78
2018-11-02T11:26:59.400Z,81.05
2018-11-02T11:27:59.382Z,79.75
2018-11-02T11:28:59.437Z,78.69
2018-11-02T11:29:59.408Z,78.34
2018-11-02T11:30:59.420Z,76.81
2018-11-02T11:31:59.461Z,76.84
2018-11-02T11:32:59.439Z,76.07
2018-11-02T11:33:59.449Z,75.46
2018-11-02T11:34:59.473Z,76.92
2018-11-02T11:35:59.509Z,78.28
2018-11-02T11:36:59.492Z,80.20
2018-11-02T11:37:59.564Z,79.86
2018-11-02T11:38:59.515Z,78.94
2018-11-02T11:39:59.533Z,78.21
2018-11-02T11:40:59.544Z,77.63
2018-11-02T11:41:59.584Z,77.48
2018-11-02T11:42:59.567Z,76.42
2018-11-02T11:43:59.587Z,76.04
2018-11-02T11:44:59.596Z,76.39
2018-11-02T11:45:59.608Z,75.52
2018-11-02T11:46:59.649Z,76.00
2018-11-02T11:47:59.637Z,76.54
2018-11-02T11:48:59.789Z,77.73
2018-11-02T11:49:59.660Z,78.40
2018-11-02T11:50:59.677Z,76.90
2018-11-02T11:51:59.717Z,75.75
2018-11-02T11:52:59.707Z,75.21
2018-11-02T11:53:59.717Z,74.92
2018-11-02T11:54:59.733Z,75.40
2018-11-02T11:55:59.744Z,75.21
2018-11-02T11:56:59.781Z,75.40
2018-11-02T11:57:59.767Z,74.63
2018-11-02T11:58:59.784Z,73.80
2018-11-02T11:59:59.794Z,72.36
2018-11-02T12:00:59.801Z,73.61
2018-11-02T12:01:59.849Z,72.65
2018-11-02T12:02:59.835Z,72.36
2018-11-02T12:03:59.847Z,72.84
2018-11-02T12:04:59.934Z,72.36
2018-11-02T12:05:59.872Z,72.55
2018-11-02T12:06:59.922Z,73.32
2018-11-02T12:07:59.897Z,73.03
2018-11-02T12:08:59.914Z,72.26
2018-11-02T12:09:59.933Z,73.03
2018-11-02T12:10:59.941Z,73.13
2018-11-02T12:11:59.989Z,72.07
2018-11-02T12:12:59.971Z,71.46
2018-11-02T12:13:59.978Z,73.22
2018-11-02T12:14:59.996Z,72.74
2018-11-02T12:16:00.111Z,71.78
2018-11-02T12:17:00.050Z,71.78
2018-11-02T12:18:00.062Z,71.59
2018-11-02T12:19:00.074Z,71.97
2018-11-02T12:20:00.063Z,73.07
2018-11-02T12:21:00.080Z,71.53
2018-11-02T12:22:00.136Z,70.86
2018-11-02T12:23:00.137Z,69.70
2018-11-02T12:24:00.118Z,70.18
2018-11-02T12:25:00.131Z,69.41
2018-11-02T12:26:00.143Z,70.86
2018-11-02T12:27:00.192Z,69.51
2018-11-02T12:28:00.225Z,68.35
2018-11-02T12:29:00.184Z,68.54
2018-11-02T12:30:00.198Z,68.44
2018-11-02T12:31:00.227Z,68.54
2018-11-02T12:32:00.270Z,69.38
2018-11-02T12:33:00.243Z,70.43
2018-11-02T12:34:00.283Z,70.95
2018-11-02T12:35:00.267Z,70.37
2018-11-02T12:36:00.282Z,69.45
2018-11-02T12:37:00.354Z,68.00
2018-11-02T12:38:00.311Z,68.29
2018-11-02T12:39:00.352Z,68.19
2018-11-02T12:40:00.338Z,67.65
2018-11-02T12:41:00.354Z,67.84
2018-11-02T12:42:00.370Z,66.94
2018-11-02T12:43:00.379Z,68.10
2018-11-02T12:44:00.547Z,68.52
2018-11-02T12:45:00.407Z,67.26
2018-11-02T12:46:00.419Z,66.97
2018-11-02T12:47:00.432Z,66.97
2018-11-02T12:48:00.515Z,65.78
2018-11-02T12:49:00.727Z,66.62
2018-11-02T12:50:00.526Z,68.06
2018-11-02T12:51:00.492Z,67.49
2018-11-02T12:52:00.504Z,67.03